Time;durP1;ratioP1;P1;durP2;ratioP2;P2;SDS_P1;SDS_P2;PMS_P1;PMS_P2;Temp;Humidity;BMP_temperature;BMP_pressure;BME280_temperature;BME280_humidity;BME280_pressure;Samples;Min_cycle;Max_cycle;Signal;HPM_P1;HPM_P2
2021/05/19 00:02:13;;;;;;;1.33;0.97;;;;;;;8.85;100.00;96191.94;5037145;28;20217;-69
2021/05/19 00:04:39;;;;;;;0.80;0.80;;;;;;;8.87;100.00;96198.66;5037579;28;20201;-69
2021/05/19 00:07:06;;;;;;;1.03;0.87;;;;;;;8.83;100.00;96191.28;5036483;28;20212;-69
2021/05/19 00:09:32;;;;;;;1.60;1.00;;;;;;;8.91;100.00;96184.19;5037031;28;20216;-69
2021/05/19 00:11:58;;;;;;;2.20;0.87;;;;;;;8.93;100.00;96191.91;5036708;28;20989;-69
2021/05/19 00:14:24;;;;;;;2.17;1.17;;;;;;;8.88;100.00;96186.34;5037333;28;20236;-68
2021/05/19 00:16:50;;;;;;;2.27;1.00;;;;;;;8.95;100.00;96189.91;5036166;28;20208;-69
2021/05/19 00:19:17;;;;;;;1.83;1.10;;;;;;;9.01;100.00;96189.25;5036965;28;20208;-69
2021/05/19 00:21:43;;;;;;;1.90;1.00;;;;;;;8.99;100.00;96181.53;5037329;28;20221;-69
2021/05/19 00:24:11;;;;;;;4.67;1.13;;;;;;;9.04;100.00;96183.66;5036480;28;20204;-69
2021/05/19 00:26:37;;;;;;;3.27;1.30;;;;;;;9.00;100.00;96177.94;5036612;28;20200;-69
2021/05/19 00:29:04;;;;;;;2.60;1.30;;;;;;;8.98;100.00;96182.53;5037128;28;20205;-69
2021/05/19 00:31:32;;;;;;;3.50;1.23;;;;;;;9.03;100.00;96179.41;5036265;28;20837;-69
2021/05/19 00:33:59;;;;;;;5.03;1.43;;;;;;;8.98;100.00;96184.34;5036811;28;20205;-69
2021/05/19 00:36:25;;;;;;;2.30;1.40;;;;;;;9.03;100.00;96172.31;5037297;28;20205;-69
2021/05/19 00:38:52;;;;;;;2.10;1.20;;;;;;;9.10;100.00;96184.63;5036605;28;20209;-69
2021/05/19 00:41:19;;;;;;;2.37;1.30;;;;;;;9.10;100.00;96183.81;5035892;28;20247;-69
2021/05/19 00:43:46;;;;;;;4.03;1.30;;;;;;;9.12;100.00;96176.56;5036745;28;20205;-69
2021/05/19 00:46:12;;;;;;;3.67;1.40;;;;;;;9.09;100.00;96184.81;5035657;28;20671;-68
2021/05/19 00:48:38;;;;;;;2.27;1.40;;;;;;;9.11;100.00;96178.38;5036219;28;20201;-69
2021/05/19 00:51:05;;;;;;;2.77;1.50;;;;;;;9.09;100.00;96169.84;5036563;28;20232;-69
2021/05/19 00:53:32;;;;;;;2.97;1.40;;;;;;;9.16;100.00;96175.25;5036938;28;20209;-69
2021/05/19 00:55:58;;;;;;;2.83;1.53;;;;;;;9.05;100.00;96180.88;5035445;28;20205;-69
2021/05/19 00:58:25;;;;;;;3.93;1.50;;;;;;;9.12;100.00;96173.94;5036381;28;20205;-69
2021/05/19 01:00:51;;;;;;;2.20;1.57;;;;;;;9.13;100.00;96176.41;5036511;28;20236;-69
2021/05/19 01:03:17;;;;;;;2.10;1.40;;;;;;;9.19;100.00;96167.03;5036306;28;20653;-69
2021/05/19 01:05:46;;;;;;;2.87;1.57;;;;;;;9.19;100.00;96172.28;5035702;28;20205;-68
2021/05/19 01:11:05;;;;;;;4.33;1.70;;;;;;;9.21;100.00;96171.09;5035913;28;20244;-69
2021/05/19 01:13:33;;;;;;;3.80;1.57;;;;;;;9.21;100.00;96165.84;5036202;28;20204;-69
2021/05/19 01:16:00;;;;;;;2.20;1.50;;;;;;;9.22;100.00;96172.75;5035621;28;20589;-69
2021/05/19 01:18:26;;;;;;;1.60;1.40;;;;;;;9.15;100.00;96161.28;5036328;28;20734;-69
2021/05/19 01:20:55;;;;;;;5.47;1.80;;;;;;;9.13;100.00;96170.34;5036086;28;20221;-69
2021/05/19 01:23:22;;;;;;;4.20;1.90;;;;;;;9.09;100.00;96164.59;5035976;28;20212;-69
2021/05/19 01:25:48;;;;;;;3.40;1.67;;;;;;;9.03;100.00;96166.25;5035306;28;20716;-69
2021/05/19 01:28:14;;;;;;;2.40;1.60;;;;;;;9.05;100.00;96170.38;5036130;28;20209;-69
2021/05/19 01:30:41;;;;;;;3.60;1.90;;;;;;;9.00;100.00;96172.69;5035910;28;20766;-69
2021/05/19 01:33:07;;;;;;;2.73;1.67;;;;;;;8.99;100.00;96173.66;5036095;28;20221;-69
2021/05/19 01:35:33;;;;;;;3.93;1.80;;;;;;;9.03;100.00;96174.97;5035467;28;20205;-69
2021/05/19 01:38:00;;;;;;;4.53;1.87;;;;;;;9.02;100.00;96169.88;5036233;28;20205;-69
2021/05/19 01:40:27;;;;;;;3.67;2.00;;;;;;;8.99;100.00;96165.78;5036453;28;20209;-69
2021/05/19 01:42:53;;;;;;;3.20;1.77;;;;;;;9.03;100.00;96169.69;5035937;28;20306;-69
2021/05/19 01:45:24;;;;;;;3.63;2.10;;;;;;;8.99;100.00;96175.47;5034895;28;20205;-69
2021/05/19 01:47:52;;;;;;;6.00;1.80;;;;;;;8.99;100.00;96175.47;5036562;28;20205;-69
2021/05/19 01:50:20;;;;;;;4.57;1.93;;;;;;;9.03;100.00;96176.78;5035752;28;20206;-68
2021/05/19 01:52:48;;;;;;;3.37;2.00;;;;;;;9.02;100.00;96175.13;5035864;28;20224;-69
2021/05/19 01:55:16;;;;;;;3.63;2.03;;;;;;;9.02;100.00;96175.94;5035437;28;20205;-69
2021/05/19 01:57:44;;;;;;;3.37;1.90;;;;;;;8.88;100.00;96176.63;5038774;28;20204;-69
2021/05/19 02:00:12;;;;;;;3.33;2.10;;;;;;;8.96;100.00;96179.25;5038948;28;20198;-69
2021/05/19 02:02:38;;;;;;;2.43;1.77;;;;;;;9.00;100.00;96175.31;5039860;28;20232;-69
2021/05/19 02:05:05;;;;;;;5.13;1.90;;;;;;;8.99;100.00;96176.28;5039272;28;20208;-69
2021/05/19 02:07:35;;;;;;;3.90;2.37;;;;;;;8.96;100.00;96179.25;5039439;28;20213;-69
2021/05/19 02:10:04;;;;;;;4.03;2.10;;;;;;;8.88;100.00;96181.88;5039225;28;20681;-69
2021/05/19 02:12:30;;;;;;;3.33;1.90;;;;;;;8.94;100.00;96177.78;5039264;28;20888;-69
2021/05/19 02:14:57;;;;;;;4.70;2.10;;;;;;;8.89;100.00;96183.53;5039278;28;20216;-69
2021/05/19 02:17:26;;;;;;;3.53;1.90;;;;;;;8.98;100.00;96185.16;5038707;28;20209;-69
2021/05/19 02:19:52;;;;;;;3.10;1.90;;;;;;;8.97;100.00;96188.75;5039104;28;20687;-69
2021/05/19 02:22:18;;;;;;;5.17;2.23;;;;;;;8.96;100.00;96184.53;5035704;28;20253;-69
2021/05/19 02:24:44;;;;;;;3.20;1.90;;;;;;;9.02;100.00;96180.38;5039204;28;20292;-69
2021/05/19 02:27:10;;;;;;;4.23;2.13;;;;;;;9.05;100.00;96185.28;5038483;28;20206;-69
2021/05/19 02:29:36;;;;;;;4.90;2.17;;;;;;;9.07;100.00;96191.22;5039478;28;20235;-68
2021/05/19 02:32:03;;;;;;;4.17;2.47;;;;;;;9.03;100.00;96193.34;5038621;28;20236;-69
2021/05/19 02:34:29;;;;;;;3.63;1.90;;;;;;;9.02;100.00;96191.72;5037402;28;20201;-69
2021/05/19 02:36:55;;;;;;;4.30;2.40;;;;;;;9.06;100.00;96190.38;5037315;28;20270;-69
2021/05/19 02:39:22;;;;;;;8.03;2.10;;;;;;;9.08;100.00;96193.66;5038757;28;20209;-69
2021/05/19 02:41:48;;;;;;;4.40;2.00;;;;;;;9.02;100.00;96191.72;5038924;28;20609;-69
2021/05/19 02:44:15;;;;;;;4.80;2.13;;;;;;;8.88;100.00;96187.13;5038876;28;20282;-69
2021/05/19 02:46:41;;;;;;;3.03;2.03;;;;;;;8.98;100.00;96187.78;5037853;28;20221;-69
2021/05/19 02:49:07;;;;;;;3.67;2.13;;;;;;;8.99;100.00;96197.31;5038934;28;20212;-69
2021/05/19 02:51:35;;;;;;;5.70;2.50;;;;;;;8.96;100.00;96197.66;5038440;28;20232;-69
2021/05/19 02:54:01;;;;;;;6.10;2.43;;;;;;;8.93;100.00;96197.97;5038470;28;20287;-69
2021/05/19 02:56:27;;;;;;;5.83;2.50;;;;;;;8.97;100.00;96199.28;5037687;28;20209;-69
2021/05/19 02:58:54;;;;;;;6.70;2.80;;;;;;;8.96;100.00;96197.66;5039144;28;20208;-69
2021/05/19 03:01:20;;;;;;;4.73;2.50;;;;;;;9.02;100.00;96201.41;5038452;28;20742;-69
2021/05/19 03:03:46;;;;;;;3.70;2.50;;;;;;;8.91;100.00;96192.09;5037974;28;20209;-69
2021/05/19 03:06:13;;;;;;;3.87;2.47;;;;;;;9.00;100.00;96200.75;5037833;28;20266;-69
2021/05/19 03:08:39;;;;;;;3.13;2.57;;;;;;;9.03;100.00;96193.34;5038839;28;20203;-69
2021/05/19 03:11:07;;;;;;;4.10;2.37;;;;;;;8.96;100.00;96202.06;5037783;28;20220;-69
2021/05/19 03:13:33;;;;;;;5.53;2.87;;;;;;;9.02;100.00;96201.41;5038303;28;20204;-69
2021/05/19 03:16:00;;;;;;;4.73;2.90;;;;;;;9.00;100.00;96206.84;5037541;28;20201;-69
2021/05/19 03:18:26;;;;;;;5.33;3.00;;;;;;;9.03;100.00;96210.94;5038084;28;20217;-69
2021/05/19 03:20:52;;;;;;;6.00;3.47;;;;;;;9.09;100.00;96208.47;5038434;28;20316;-69
2021/05/19 03:23:19;;;;;;;5.80;3.23;;;;;;;9.07;100.00;96207.00;5037781;28;20685;-69
2021/05/19 03:25:45;;;;;;;4.80;3.30;;;;;;;9.11;100.00;96222.25;5036902;28;20972;-69
2021/05/19 03:28:11;;;;;;;6.17;3.37;;;;;;;9.04;100.00;96215.19;5038037;28;20212;-69
2021/05/19 03:30:37;;;;;;;6.67;3.10;;;;;;;9.06;100.00;96214.03;5038061;28;20225;-69
2021/05/19 03:33:04;;;;;;;4.77;3.07;;;;;;;9.08;100.00;96212.88;5037722;28;20595;-69
2021/05/19 03:35:30;;;;;;;7.60;3.57;;;;;;;9.11;100.00;96211.72;5035100;28;20288;-69
2021/05/19 03:37:57;;;;;;;6.37;3.17;;;;;;;9.15;100.00;96215.66;5037888;28;20197;-69
2021/05/19 03:40:23;;;;;;;4.33;3.20;;;;;;;9.14;100.00;96220.09;5037930;28;20197;-69
2021/05/19 03:42:49;;;;;;;5.27;3.33;;;;;;;9.09;100.00;96218.97;5037430;28;20212;-69
2021/05/19 03:45:19;;;;;;;7.93;4.07;;;;;;;9.06;100.00;96227.19;5037042;28;20452;-69
2021/05/19 03:47:46;;;;;;;6.10;3.90;;;;;;;9.05;100.00;96217.69;5037908;28;20204;-69
2021/05/19 03:50:13;;;;;;;4.63;3.47;;;;;;;8.91;100.00;96222.78;5037733;28;20197;-69
2021/05/19 03:52:40;;;;;;;5.93;4.10;;;;;;;8.93;100.00;96229.50;5037008;28;20718;-69
2021/05/19 03:55:09;;;;;;;8.33;4.00;;;;;;;8.85;100.00;96234.78;5036781;28;20231;-69
2021/05/19 03:57:36;;;;;;;5.50;3.73;;;;;;;8.80;100.00;96226.56;5037841;28;20204;-69
2021/05/19 04:00:04;;;;;;;5.10;4.00;;;;;;;8.85;100.00;96233.97;5037479;28;20216;-69
2021/05/19 04:02:30;;;;;;;8.83;4.30;;;;;;;8.93;100.00;96240.03;5037263;28;20225;-69
2021/05/19 04:04:56;;;;;;;8.63;5.63;;;;;;;8.95;100.00;96232.81;5037977;28;20208;-69
2021/05/19 04:07:22;;;;;;;6.87;4.50;;;;;;;8.92;100.00;96238.38;5036741;28;20263;-69
2021/05/19 04:09:48;;;;;;;5.30;3.70;;;;;;;8.94;100.00;96246.13;5036459;28;20235;-69
2021/05/19 04:12:14;;;;;;;6.43;4.07;;;;;;;8.92;100.00;96243.63;5037285;28;20229;-69
2021/05/19 04:14:40;;;;;;;6.80;3.93;;;;;;;8.85;100.00;96247.13;5037439;28;20577;-69
2021/05/19 04:17:06;;;;;;;6.40;3.67;;;;;;;8.93;100.00;96250.53;5036298;28;20209;-69
2021/05/19 04:19:33;;;;;;;4.63;2.77;;;;;;;8.93;100.00;96244.47;5036671;28;20228;-69
2021/05/19 04:21:59;;;;;;;4.17;2.77;;;;;;;8.86;100.00;96249.56;5037057;28;20221;-69
2021/05/19 04:24:25;;;;;;;4.63;3.00;;;;;;;8.83;100.00;96259.56;5037217;28;20235;-69
2021/05/19 04:26:52;;;;;;;4.43;2.93;;;;;;;8.91;100.00;96257.78;5035838;28;20650;-69
2021/05/19 04:29:18;;;;;;;5.77;3.50;;;;;;;8.90;100.00;96261.38;5037137;28;20205;-69
2021/05/19 04:31:44;;;;;;;5.23;3.10;;;;;;;8.86;100.00;96259.25;5036943;28;20729;-69
2021/05/19 04:34:10;;;;;;;6.17;3.20;;;;;;;8.86;100.00;96257.44;5036629;28;20209;-69
2021/05/19 04:36:36;;;;;;;6.10;3.60;;;;;;;8.87;100.00;96266.97;5034243;28;21186;-69
2021/05/19 04:39:05;;;;;;;6.23;3.23;;;;;;;8.87;100.00;96263.50;5036705;28;20282;-69
2021/05/19 04:41:31;;;;;;;6.83;3.50;;;;;;;8.93;100.00;96260.22;5036488;28;20782;-68
2021/05/19 04:43:57;;;;;;;5.27;3.27;;;;;;;9.01;100.00;96263.66;5036955;28;20216;-68
2021/05/19 04:46:22;;;;;;;4.87;3.27;;;;;;;9.03;100.00;96266.94;5036274;28;20569;-68
2021/05/19 04:48:49;;;;;;;5.60;3.00;;;;;;;9.00;100.00;96267.28;5036464;28;20205;-68
2021/05/19 04:51:15;;;;;;;7.73;3.13;;;;;;;8.96;100.00;96265.97;5036259;28;20316;-68
2021/05/19 04:53:41;;;;;;;4.10;2.60;;;;;;;8.94;100.00;96278.47;5036756;28;20673;-68
2021/05/19 04:56:07;;;;;;;4.60;2.27;;;;;;;8.94;100.00;96273.19;5035929;28;20213;-68
2021/05/19 04:58:33;;;;;;;3.10;2.37;;;;;;;8.93;100.00;96284.69;5036461;28;20593;-68
2021/05/19 05:00:59;;;;;;;2.60;2.10;;;;;;;8.94;100.00;96278.47;5036660;28;20230;-68
2021/05/19 05:03:25;;;;;;;3.00;2.23;;;;;;;8.95;100.00;96274.00;5036475;28;20286;-68
2021/05/19 05:05:53;;;;;;;4.93;2.20;;;;;;;8.96;100.00;96275.66;5035494;28;20258;-68
2021/05/19 05:08:19;;;;;;;2.83;2.20;;;;;;;9.00;100.00;96276.97;5036815;28;20208;-68
2021/05/19 05:10:45;;;;;;;3.10;2.30;;;;;;;9.07;100.00;96276.13;5036142;28;20283;-68
2021/05/19 05:13:11;;;;;;;3.57;2.30;;;;;;;9.09;100.00;96282.06;5036140;28;20225;-68
2021/05/19 05:15:37;;;;;;;5.00;2.20;;;;;;;9.17;100.00;96284.66;5036297;28;20578;-69
2021/05/19 05:18:04;;;;;;;3.40;2.17;;;;;;;9.20;100.00;96289.56;5036214;28;20204;-68
2021/05/19 05:20:29;;;;;;;3.33;2.30;;;;;;;9.24;100.00;96286.47;5036087;28;20212;-68
2021/05/19 05:22:56;;;;;;;6.03;2.60;;;;;;;9.17;100.00;96295.19;5035990;28;21192;-68
2021/05/19 05:25:22;;;;;;;3.53;2.50;;;;;;;9.19;100.00;96291.41;5036329;28;20208;-68
2021/05/19 05:27:48;;;;;;;4.13;2.37;;;;;;;9.16;100.00;96293.53;5036169;28;20288;-68
2021/05/19 05:30:15;;;;;;;5.27;2.70;;;;;;;9.14;100.00;96300.78;5035685;28;20205;-68
2021/05/19 05:32:42;;;;;;;6.67;2.70;;;;;;;9.19;100.00;96301.09;5039719;28;20680;-68
2021/05/19 05:35:10;;;;;;;3.90;2.70;;;;;;;9.20;100.00;96298.31;5037747;28;20205;-68
2021/05/19 05:37:36;;;;;;;5.13;2.60;;;;;;;9.24;100.00;96304.88;5038576;28;20213;-68
2021/05/19 05:40:04;;;;;;;4.63;2.60;;;;;;;9.21;100.00;96302.56;5039791;28;20675;-68
2021/05/19 05:42:30;;;;;;;3.87;2.37;;;;;;;9.22;100.00;96312.09;5040273;28;20228;-68
2021/05/19 05:44:56;;;;;;;3.00;2.03;;;;;;;9.26;100.00;96304.69;5039816;28;20200;-68
2021/05/19 05:47:22;;;;;;;3.80;2.67;;;;;;;9.23;100.00;96311.09;5039490;28;20266;-68
2021/05/19 05:49:49;;;;;;;5.93;3.47;;;;;;;9.41;100.00;96310.91;5039917;28;20292;-68
2021/05/19 05:52:15;;;;;;;4.83;2.80;;;;;;;9.39;100.00;96305.81;5039261;28;20282;-68
2021/05/19 05:54:41;;;;;;;4.77;2.80;;;;;;;9.28;100.00;96308.81;5039939;28;20213;-68
2021/05/19 05:57:08;;;;;;;5.00;2.97;;;;;;;9.31;100.00;96313.72;5039320;28;20690;-68
2021/05/19 05:59:34;;;;;;;7.23;3.70;;;;;;;9.30;100.00;96313.88;5039694;28;20213;-68
2021/05/19 06:02:00;;;;;;;5.50;3.20;;;;;;;9.23;100.00;96315.56;5039132;28;20225;-68
2021/05/19 06:04:26;;;;;;;5.83;2.97;;;;;;;9.29;100.00;96320.13;5039718;28;20229;-68
2021/05/19 06:06:52;;;;;;;4.13;2.73;;;;;;;9.27;100.00;96320.31;5038929;28;20201;-68
2021/05/19 06:09:18;;;;;;;5.27;3.53;;;;;;;9.30;100.00;96312.06;5039459;28;20262;-68
2021/05/19 06:11:44;;;;;;;6.47;3.77;;;;;;;9.30;100.00;96314.69;5039385;28;20233;-68
2021/05/19 06:14:11;;;;;;;8.23;4.20;;;;;;;9.37;100.00;96318.31;5039367;28;20293;-68
2021/05/19 06:16:37;;;;;;;6.10;4.10;;;;;;;9.44;100.00;96324.53;5038705;28;20749;-68
2021/05/19 06:19:03;;;;;;;6.17;4.47;;;;;;;9.44;100.00;96318.47;5039072;28;20215;-68
2021/05/19 06:21:29;;;;;;;7.60;4.70;;;;;;;9.51;100.00;96319.41;5038959;28;20276;-68
2021/05/19 06:23:55;;;;;;;5.87;4.60;;;;;;;9.59;100.00;96317.59;5039566;28;20201;-68
2021/05/19 06:26:21;;;;;;;7.00;4.83;;;;;;;9.73;100.00;96315.06;5038021;28;20670;-68
2021/05/19 06:28:47;;;;;;;7.43;4.43;;;;;;;9.75;100.00;96322.81;5039108;28;20694;-69
2021/05/19 06:31:14;;;;;;;5.27;3.87;;;;;;;9.81;100.00;96325.59;5039498;28;20233;-68
2021/05/19 06:33:40;;;;;;;8.63;4.10;;;;;;;9.85;100.00;96318.16;5038316;28;20703;-68
2021/05/19 06:36:07;;;;;;;5.97;4.23;;;;;;;10.02;100.00;96317.97;5035236;28;20201;-68
2021/05/19 06:38:33;;;;;;;7.63;3.70;;;;;;;10.10;100.00;96328.44;5039917;28;20694;-69
2021/05/19 06:40:59;;;;;;;6.37;4.17;;;;;;;10.15;100.00;96314.78;5038451;28;20225;-68
2021/05/19 06:43:25;;;;;;;7.33;3.90;;;;;;;10.23;100.00;96317.38;5038529;28;20201;-68
2021/05/19 06:45:51;;;;;;;5.47;3.60;;;;;;;10.16;100.00;96322.50;5037976;28;20213;-68
2021/05/19 06:48:17;;;;;;;5.13;4.27;;;;;;;10.17;100.00;96318.88;5038856;28;20282;-68
2021/05/19 06:50:45;;;;;;;6.87;3.50;;;;;;;10.23;100.00;96323.44;5038626;28;20291;-68
2021/05/19 06:53:11;;;;;;;6.50;4.03;;;;;;;10.22;100.00;96321.81;5038302;28;20320;-68
2021/05/19 06:55:38;;;;;;;4.60;3.70;;;;;;;10.28;100.00;96323.75;5038039;28;20256;-68
2021/05/19 06:58:04;;;;;;;8.70;4.27;;;;;;;10.43;100.00;96324.66;5038550;28;20590;-68
2021/05/19 07:00:30;;;;;;;5.23;3.93;;;;;;;10.35;100.00;96320.25;5037953;28;20320;-68
2021/05/19 07:02:56;;;;;;;5.57;3.77;;;;;;;10.48;100.00;96328.41;5037359;28;20589;-68
2021/05/19 07:05:23;;;;;;;5.87;3.87;;;;;;;10.48;100.00;96324.97;5037135;28;20300;-68
2021/05/19 07:07:49;;;;;;;7.17;3.83;;;;;;;10.47;100.00;96324.13;5037734;28;20231;-68
2021/05/19 07:10:16;;;;;;;4.90;3.00;;;;;;;10.62;100.00;96325.00;5037886;28;20296;-69
2021/05/19 07:12:42;;;;;;;3.97;3.23;;;;;;;10.86;100.00;96327.50;5036956;28;20503;-68
2021/05/19 07:15:11;;;;;;;6.87;4.27;;;;;;;11.14;100.00;96326.75;5036823;28;20251;-68
2021/05/19 07:17:38;;;;;;;9.20;3.90;;;;;;;10.98;100.00;96323.44;5037450;28;20725;-68
2021/05/19 07:20:05;;;;;;;6.23;4.10;;;;;;;10.70;100.00;96322.31;5037592;28;20645;-68
2021/05/19 07:22:32;;;;;;;6.67;4.30;;;;;;;10.46;100.00;96329.56;5037346;28;20762;-68
2021/05/19 07:24:58;;;;;;;8.90;3.87;;;;;;;10.42;100.00;96331.75;5037722;28;20259;-68
2021/05/19 07:27:24;;;;;;;5.83;4.83;;;;;;;10.43;100.00;96335.19;5036117;28;20249;-68
2021/05/19 07:29:50;;;;;;;8.10;4.60;;;;;;;10.46;100.00;96340.94;5037431;28;20582;-68
2021/05/19 07:32:16;;;;;;;8.33;5.07;;;;;;;10.49;100.00;96335.31;5036980;28;20229;-68
2021/05/19 07:34:42;;;;;;;6.30;4.83;;;;;;;10.49;100.00;96334.50;5034077;28;20209;-68
2021/05/19 07:37:08;;;;;;;7.93;4.57;;;;;;;10.57;100.00;96337.09;5036918;28;20747;-68
2021/05/19 07:39:35;;;;;;;8.17;4.70;;;;;;;10.53;100.00;96343.69;5037406;28;20641;-68
2021/05/19 07:42:02;;;;;;;6.67;4.83;;;;;;;10.52;100.00;96334.97;5036881;28;20229;-68
2021/05/19 07:44:28;;;;;;;5.90;4.50;;;;;;;10.70;100.00;96342.59;5036797;28;20589;-68
2021/05/19 07:46:54;;;;;;;8.13;5.10;;;;;;;10.82;100.00;96338.53;5036445;28;21034;-68
2021/05/19 07:49:20;;;;;;;10.37;5.37;;;;;;;10.87;100.00;96338.84;5037739;28;20295;-68
2021/05/19 07:51:46;;;;;;;8.23;4.77;;;;;;;11.02;100.00;96349.28;5036508;28;20225;-68
2021/05/19 07:54:17;;;;;;;8.57;5.07;;;;;;;11.16;100.00;96337.97;5035710;28;20294;-68
2021/05/19 07:56:52;;;;;;;9.13;4.90;;;;;;;11.14;100.00;96337.31;5036317;28;20637;-68
2021/05/19 07:59:19;;;;;;;7.10;4.70;;;;;;;11.00;100.00;96335.44;5036294;28;20214;-68
2021/05/19 08:02:01;;;;;;;9.57;4.70;;;;;;;10.98;100.00;96333.97;5036254;28;20675;-68
2021/05/19 08:04:28;;;;;;;6.67;4.60;;;;;;;10.93;100.00;96339.78;5036900;28;20205;-69
2021/05/19 08:06:54;;;;;;;7.23;4.63;;;;;;;10.90;100.00;96341.94;5035823;28;20687;-68
2021/05/19 08:09:20;;;;;;;6.10;3.90;;;;;;;11.05;98.44;96340.19;5036444;28;20208;-68
2021/05/19 08:11:47;;;;;;;6.83;3.57;;;;;;;11.17;92.90;96347.47;5036206;28;21062;-69
2021/05/19 08:14:14;;;;;;;4.37;2.93;;;;;;;11.26;91.13;96346.41;5036520;28;20211;-68
2021/05/19 08:16:40;;;;;;;7.53;3.80;;;;;;;11.43;93.78;96347.09;5035547;28;20265;-68
2021/05/19 08:19:06;;;;;;;4.40;3.17;;;;;;;11.54;92.50;96344.06;5036699;28;20213;-68
2021/05/19 08:21:32;;;;;;;5.23;4.10;;;;;;;11.52;93.89;96341.59;5036313;28;20233;-68
2021/05/19 08:23:58;;;;;;;7.73;3.40;;;;;;;11.75;94.08;96337.88;5036081;28;20718;-68
2021/05/19 08:26:24;;;;;;;5.80;3.33;;;;;;;11.76;89.98;96338.69;5035167;28;20609;-68
2021/05/19 08:28:51;;;;;;;4.10;3.20;;;;;;;12.05;92.24;96333.41;5036577;28;20201;-68
2021/05/19 08:31:19;;;;;;;4.33;3.67;;;;;;;12.25;94.69;96336.13;5036273;28;20229;-68
2021/05/19 08:33:45;;;;;;;5.95;3.38;;;;;;;12.28;88.49;96335.75;5036144;28;20225;-69
2021/05/19 08:36:11;;;;;;;4.17;3.10;;;;;;;12.27;88.80;96333.28;5033251;28;20656;-69
2021/05/19 08:38:38;;;;;;;3.63;2.93;;;;;;;12.25;90.93;96330.03;5035864;28;20209;-69
2021/05/19 08:41:04;;;;;;;7.57;3.22;;;;;;;12.26;89.12;96327.19;5035718;28;20236;-68
2021/05/19 08:43:31;;;;;;;4.67;3.37;;;;;;;12.22;90.99;96333.84;5036142;28;20216;-69
2021/05/19 08:45:58;;;;;;;5.03;3.60;;;;;;;12.08;89.46;96333.03;5035125;28;20208;-68
2021/05/19 08:48:25;;;;;;;5.33;3.40;;;;;;;11.76;85.48;96338.69;5035667;28;20708;-68
2021/05/19 08:50:51;;;;;;;4.80;3.03;;;;;;;11.48;84.17;96331.53;5035786;28;20224;-68
2021/05/19 08:53:17;;;;;;;2.23;1.97;;;;;;;11.41;84.86;96336.72;5035068;28;20594;-68
2021/05/19 08:55:43;;;;;;;3.50;2.97;;;;;;;11.53;82.99;96332.66;5035731;28;20213;-68
2021/05/19 08:58:09;;;;;;;10.63;6.23;;;;;;;11.76;87.84;96330.78;5036097;28;20201;-68
2021/05/19 09:00:35;;;;;;;4.20;3.20;;;;;;;11.81;82.02;96333.69;5035526;28;20236;-68
2021/05/19 09:03:11;;;;;;;4.77;3.30;;;;;;;11.90;82.72;96325.50;5035699;28;20243;-69
2021/05/19 09:05:38;;;;;;;4.27;2.80;;;;;;;11.81;82.91;96325.78;5035736;28;20689;-69
2021/05/19 09:08:06;;;;;;;3.77;3.17;;;;;;;11.78;86.08;96339.34;5035268;28;20595;-68
2021/05/19 09:10:32;;;;;;;5.33;3.43;;;;;;;12.01;84.91;96334.78;5035717;28;20205;-69
2021/05/19 09:12:58;;;;;;;5.63;3.37;;;;;;;12.45;84.81;96320.50;5035502;28;20225;-67
2021/05/19 09:15:25;;;;;;;4.57;3.07;;;;;;;12.87;78.23;96326.69;5035453;28;20201;-68
2021/05/19 09:18:00;;;;;;;6.97;3.55;;;;;;;12.91;80.73;96320.81;5035733;28;20209;-69
2021/05/19 09:20:27;;;;;;;4.00;3.13;;;;;;;12.98;81.97;96323.53;5035448;28;20513;-68
2021/05/19 09:23:03;;;;;;;7.80;3.15;;;;;;;13.13;80.57;96317.16;5035440;28;20205;-68
2021/05/19 09:25:30;;;;;;;4.65;3.28;;;;;;;13.16;76.11;96319.44;5034913;28;20282;-69
2021/05/19 09:27:59;;;;;;;3.67;2.95;;;;;;;13.70;79.60;96309.88;5035371;28;20216;-69
2021/05/19 09:30:36;;;;;;;6.03;3.13;;;;;;;13.59;76.12;96313.88;5035404;28;20209;-69
2021/05/19 09:33:16;;;;;;;5.35;2.75;;;;;;;13.66;75.35;96308.63;5035543;28;20232;-68
2021/05/19 09:35:43;;;;;;;6.18;3.72;;;;;;;13.81;76.85;96312.78;5032760;28;20212;-68
2021/05/19 09:38:25;;;;;;;6.30;3.30;;;;;;;13.84;79.76;96315.03;5035667;28;20209;-69
2021/05/19 09:41:14;;;;;;;7.07;4.05;;;;;;;14.19;81.49;96311.38;5035104;28;20574;-68
2021/05/19 09:43:40;;;;;;;7.20;3.60;;;;;;;14.11;74.66;96293.00;5035634;28;20209;-69
2021/05/19 09:46:13;;;;;;;4.40;3.10;;;;;;;13.84;75.14;96307.09;5035295;28;20209;-68
2021/05/19 09:48:39;;;;;;;4.38;3.42;;;;;;;13.64;77.00;96310.63;5035187;28;20205;-69
2021/05/19 09:51:07;;;;;;;5.45;2.83;;;;;;;13.80;75.46;96305.84;5035181;28;20229;-69
2021/05/19 09:53:34;;;;;;;3.33;2.97;;;;;;;13.82;73.15;96306.47;5035415;28;20274;-68
2021/05/19 09:56:07;;;;;;;5.80;2.80;;;;;;;14.23;72.77;96292.25;5034502;28;20201;-69
2021/05/19 09:58:36;;;;;;;5.43;3.08;;;;;;;14.38;76.70;96295.53;5035649;28;20256;-69
2021/05/19 10:01:03;;;;;;;4.93;2.58;;;;;;;14.55;76.04;96296.00;5035387;28;20225;-69
2021/05/19 10:03:29;;;;;;;3.13;2.60;;;;;;;14.84;68.91;96296.50;5035474;28;20232;-69
2021/05/19 10:06:01;;;;;;;3.58;2.80;;;;;;;14.63;67.49;96293.19;5034510;28;20205;-69
2021/05/19 10:08:28;;;;;;;5.28;2.60;;;;;;;15.08;73.14;96282.66;5035640;28;20205;-69
2021/05/19 10:10:57;;;;;;;5.03;2.60;;;;;;;15.56;79.78;96276.97;5034572;28;20946;-69
2021/05/19 10:13:24;;;;;;;3.25;2.13;;;;;;;14.64;68.58;96288.50;5034545;28;20228;-69
2021/05/19 10:15:53;;;;;;;4.97;2.42;;;;;;;13.79;72.10;96298.09;5035001;28;20202;-70
2021/05/19 10:18:22;;;;;;;3.80;2.65;;;;;;;13.25;74.33;96299.78;5038384;28;20559;-69
2021/05/19 10:20:54;;;;;;;9.43;3.30;;;;;;;12.94;79.53;96304.56;5038621;28;20225;-69
2021/05/19 10:23:24;;;;;;;4.20;3.30;;;;;;;12.83;79.87;96298.97;5039154;28;20201;-69
2021/05/19 10:25:51;;;;;;;4.20;3.03;;;;;;;12.88;82.97;96296.56;5038608;28;20216;-68
2021/05/19 10:28:18;;;;;;;3.30;2.80;;;;;;;12.89;82.35;96300.84;5038397;28;20801;-68
2021/05/19 10:30:49;;;;;;;3.88;3.28;;;;;;;12.87;76.33;96300.25;5038745;28;20221;-69
2021/05/19 10:33:44;;;;;;;2.28;1.65;;;;;;;12.66;75.35;96310.75;5038358;28;20225;-68
2021/05/19 10:36:41;;;;;;;3.03;1.45;;;;;;;12.27;74.22;96323.56;5035517;28;20557;-68
2021/05/19 10:39:24;;;;;;;1.15;0.80;;;;;;;12.18;73.13;96321.19;5003555;28;20514;-69
2021/05/19 10:41:52;;;;;;;2.60;0.73;;;;;;;12.07;73.21;96318.22;5037998;28;20224;-69
2021/05/19 10:44:20;;;;;;;2.30;1.57;;;;;;;12.15;73.13;96329.47;5037756;28;20213;-68
2021/05/19 10:46:52;;;;;;;1.03;0.90;;;;;;;12.20;70.95;96322.63;5037508;28;20212;-69
2021/05/19 10:49:19;;;;;;;2.40;1.03;;;;;;;13.10;70.72;96308.81;5038159;28;20208;-69
2021/05/19 10:51:50;;;;;;;2.13;0.90;;;;;;;13.15;70.59;96309.03;5037921;28;20253;-70
2021/05/19 10:57:18;;;;;;;1.27;0.70;;;;;;;13.14;67.45;96302.91;5037248;28;20212;-69
2021/05/19 11:00:10;;;;;;;0.60;0.55;;;;;;;12.83;66.69;96309.53;5038309;28;20674;-69
2021/05/19 11:03:13;;;;;;;1.17;0.70;;;;;;;12.84;67.00;96305.88;5037688;28;20228;-69
2021/05/19 11:06:08;;;;;;;1.53;0.63;;;;;;;13.37;67.45;96303.50;5027797;28;20576;-69
2021/05/19 11:08:35;;;;;;;1.08;0.55;;;;;;;13.59;66.05;96303.28;5037144;28;20464;-69
2021/05/19 11:11:31;;;;;;;1.55;0.70;;;;;;;13.75;66.98;96292.38;5037488;28;20236;-69
2021/05/19 11:14:09;;;;;;;1.02;0.70;;;;;;;14.09;65.49;96284.41;5037758;28;20225;-69
2021/05/19 11:16:51;;;;;;;1.30;0.75;;;;;;;14.66;66.23;96281.16;5037042;28;20679;-69
2021/05/19 11:19:29;;;;;;;0.82;0.57;;;;;;;14.71;61.39;96286.69;5037601;28;20208;-69
2021/05/19 11:22:07;;;;;;;0.60;0.60;;;;;;;14.71;63.48;96276.09;5037313;28;20228;-68
2021/05/19 11:24:50;;;;;;;0.82;0.65;;;;;;;14.74;61.17;96275.66;5037476;28;20201;-69
2021/05/19 11:27:17;;;;;;;1.85;0.57;;;;;;;14.97;61.27;96292.03;5037403;28;20204;-69
2021/05/19 11:29:46;;;;;;;0.60;0.60;;;;;;;14.70;57.95;96279.75;5036614;28;20605;-69
2021/05/19 11:32:15;;;;;;;2.00;1.00;;;;;;;14.35;60.44;96277.41;5037019;28;20478;-69
2021/05/19 11:34:41;;;;;;;1.70;1.10;;;;;;;14.42;62.05;96275.59;5035449;28;20221;-69
2021/05/19 11:37:07;;;;;;;1.95;1.20;;;;;;;14.58;59.43;96275.22;5036819;28;20287;-69
2021/05/19 11:39:37;;;;;;;3.42;1.10;;;;;;;14.88;61.35;96271.19;5037013;28;20247;-69
2021/05/19 11:42:18;;;;;;;2.78;1.30;;;;;;;14.81;61.07;96281.00;5036739;28;20453;-69